Time;durP1;ratioP1;P1;durP2;ratioP2;P2;SDS_P1;SDS_P2;PMS_P1;PMS_P2;Temp;Humidity;BMP_temperature;BMP_pressure;BME280_temperature;BME280_humidity;BME280_pressure;Samples;Min_cycle;Max_cycle;Signal;HPM_P1;HPM_P2
2023/06/05 00:04:36;;;;;;;;;;;;;;;12.61;50.90;99148.81;435465;1253;97974;-43
2023/06/05 00:14:43;;;;;;;;;;;;;;;12.62;50.71;99145.69;435624;1253;111317;-43
2023/06/05 00:24:48;;;;;;;;;;;;;;;12.59;50.65;99144.90;435702;1261;108916;-43
2023/06/05 00:34:54;;;;;;;;;;;;;;;12.48;50.68;99149.39;435912;1250;99237;-43
2023/06/05 00:44:59;;;;;;;;;;;;;;;11.91;50.96;99152.63;436890;1261;107323;-44
2023/06/05 00:55:04;;;;;;;;;;;;;;;11.00;51.79;99155.02;435816;1263;97958;-43
2023/06/05 01:05:10;;;;;;;;;;;;;;;10.27;52.81;99146.23;435619;1253;110980;-43
2023/06/05 01:15:18;;;;;;;;;;;;;;;9.84;53.75;99145.52;435715;1253;107223;-43
2023/06/05 01:25:25;;;;;;;;;;;;;;;9.53;54.53;99150.67;435685;1254;97978;-43
2023/06/05 01:35:32;;;;;;;;;;;;;;;9.17;55.18;99147.19;436941;1251;112103;-42
2023/06/05 01:45:40;;;;;;;;;;;;;;;9.00;55.49;99145.25;436601;1251;105491;-42
2023/06/05 01:55:46;;;;;;;;;;;;;;;8.95;55.98;99146.42;435334;1254;99248;-43
2023/06/05 02:15:57;;;;;;;;;;;;;;;8.87;57.32;99132.66;435357;1253;108733;-43
2023/06/05 02:26:02;;;;;;;;;;;;;;;8.81;57.81;99126.91;435433;1254;99259;-43
2023/06/05 02:36:08;;;;;;;;;;;;;;;8.65;58.05;99132.53;436689;1249;108508;-42
2023/06/05 02:46:14;;;;;;;;;;;;;;;8.50;58.55;99129.09;436636;1250;98007;-43
2023/06/05 02:56:21;;;;;;;;;;;;;;;8.39;58.90;99128.66;436099;1253;111849;-42
2023/06/05 03:06:27;;;;;;;;;;;;;;;8.29;58.96;99130.81;436040;1253;107687;-42
2023/06/05 03:16:41;;;;;;;;;;;;;;;8.50;59.05;99133.77;436031;1251;99230;-42
2023/06/05 03:26:47;;;;;;;;;;;;;;;10.24;58.63;99132.45;436241;1250;112148;-43
2023/06/05 03:36:53;;;;;;;;;;;;;;;12.17;57.18;99132.20;435908;1254;107436;-43
2023/06/05 03:46:59;;;;;;;;;;;;;;;13.74;55.44;99126.58;435429;1254;99326;-44
2023/06/05 03:57:09;;;;;;;;;;;;;;;15.09;54.03;99129.60;435113;1254;414093;-43
2023/06/05 04:07:14;;;;;;;;;;;;;;;16.51;52.48;99120.03;435607;1253;108956;-43
2023/06/05 04:17:20;;;;;;;;;;;;;;;17.82;51.24;99122.83;435393;1253;99313;-43
2023/06/05 04:27:28;;;;;;;;;;;;;;;19.15;49.99;99124.70;435228;1254;107485;-43
2023/06/05 04:37:35;;;;;;;;;;;;;;;20.52;48.65;99125.23;435394;1251;99221;-43
2023/06/05 04:47:40;;;;;;;;;;;;;;;21.64;47.45;99119.52;435433;1254;111758;-43
2023/06/05 05:07:51;;;;;;;;;;;;;;;22.57;45.09;99117.41;435330;1263;99223;-42
2023/06/05 05:28:01;;;;;;;;;;;;;;;22.56;43.68;99123.31;435565;1251;98414;-42
2023/06/05 05:48:12;;;;;;;;;;;;;;;21.76;42.02;99128.14;435323;1250;108540;-42
2023/06/05 05:58:18;;;;;;;;;;;;;;;21.95;41.56;99128.08;435304;1253;99244;-44
2023/06/05 06:08:24;;;;;;;;;;;;;;;22.04;40.70;99128.80;435408;1254;106901;-42
2023/06/05 06:18:30;;;;;;;;;;;;;;;22.42;40.59;99130.50;435375;1253;99252;-43
2023/06/05 06:28:36;;;;;;;;;;;;;;;22.90;40.38;99131.32;435334;1253;111244;-42
2023/06/05 06:38:41;;;;;;;;;;;;;;;23.26;38.91;99133.12;435282;1254;108201;-42
2023/06/05 06:48:47;;;;;;;;;;;;;;;23.30;38.93;99135.75;435493;1253;97931;-43
2023/06/05 06:58:54;;;;;;;;;;;;;;;23.82;37.97;99138.39;435345;1253;107498;-44
2023/06/05 07:08:59;;;;;;;;;;;;;;;24.14;37.40;99136.75;435503;1253;99230;-41
2023/06/05 07:19:05;;;;;;;;;;;;;;;24.35;37.24;99140.85;435320;1253;111893;-46
2023/06/05 07:29:10;;;;;;;;;;;;;;;23.81;36.27;99141.33;435258;1253;109819;-41
2023/06/05 07:39:17;;;;;;;;;;;;;;;23.80;35.02;99147.45;435239;1254;99254;-42
2023/06/05 07:49:23;;;;;;;;;;;;;;;23.63;34.13;99146.35;435446;1253;108092;-44
2023/06/05 07:59:29;;;;;;;;;;;;;;;23.93;32.91;99142.41;435245;1257;99244;-41
2023/06/05 08:09:36;;;;;;;;;;;;;;;23.68;32.08;99142.88;435537;1253;112505;-43
2023/06/05 08:19:45;;;;;;;;;;;;;;;23.92;31.68;99136.11;435336;1250;108446;-42
2023/06/05 08:29:51;;;;;;;;;;;;;;;23.96;31.30;99135.17;435248;1254;99825;-41
2023/06/05 08:50:01;;;;;;;;;;;;;;;23.88;29.59;99141.08;435305;1253;99215;-41
2023/06/05 09:00:10;;;;;;;;;;;;;;;23.55;29.03;99136.34;435487;1253;111481;-41
2023/06/05 09:10:30;;;;;;;;;;;;;;;23.62;30.01;99127.07;435419;1253;107681;-42
2023/06/05 09:20:37;;;;;;;;;;;;;;;23.84;29.50;99129.00;435466;1254;99214;-42
2023/06/05 09:30:54;;;;;;;;;;;;;;;23.87;29.68;99125.67;435436;1250;108577;-43
2023/06/05 09:41:04;;;;;;;;;;;;;;;23.97;29.70;99115.86;435370;1254;99234;-42
2023/06/05 09:51:09;;;;;;;;;;;;;;;24.06;29.74;99114.73;435363;1254;111900;-43
2023/06/05 10:01:15;;;;;;;;;;;;;;;23.91;29.58;99108.34;435430;1254;107952;-44
2023/06/05 10:11:20;;;;;;;;;;;;;;;23.86;29.46;99089.38;435422;1253;99259;-42
2023/06/05 10:21:27;;;;;;;;;;;;;;;24.00;29.74;99090.46;435371;1253;108753;-41
2023/06/05 10:31:34;;;;;;;;;;;;;;;24.23;30.09;99073.14;435311;1253;99397;-43
2023/06/05 10:41:40;;;;;;;;;;;;;;;24.37;29.72;99066.76;435435;1253;111249;-43
2023/06/05 10:51:46;;;;;;;;;;;;;;;24.10;29.54;99065.13;435324;1253;108413;-45
2023/06/05 11:02:11;;;;;;;;;;;;;;;24.07;28.81;99065.88;435668;1253;98035;-43
2023/06/05 11:12:17;;;;;;;;;;;;;;;23.93;28.52;99062.54;435410;1253;108857;-44
2023/06/05 11:22:23;;;;;;;;;;;;;;;24.41;28.99;99046.48;435347;1253;99243;-45
2023/06/05 11:32:30;;;;;;;;;;;;;;;24.35;28.39;99049.63;435479;1256;110953;-44
2023/06/05 11:42:36;;;;;;;;;;;;;;;24.56;28.69;99042.44;435312;1253;107466;-43
2023/06/05 12:12:53;;;;;;;;;;;;;;;24.37;27.88;99024.65;435410;1253;99231;-42
2023/06/05 12:22:59;;;;;;;;;;;;;;;24.28;27.90;99013.69;435365;1256;110963;-43
2023/06/05 12:43:17;;;;;;;;;;;;;;;24.43;28.24;99008.38;435548;1253;98493;-42
2023/06/05 12:53:22;;;;;;;;;;;;;;;24.46;28.10;98995.00;435305;1253;108514;-42
2023/06/05 13:03:28;;;;;;;;;;;;;;;24.62;28.37;98990.58;435264;1253;98529;-45
2023/06/05 13:23:39;;;;;;;;;;;;;;;24.49;28.02;98968.74;435247;1253;108465;-44
2023/06/05 13:33:45;;;;;;;;;;;;;;;24.58;27.97;98963.63;435300;1256;99253;-43
2023/06/05 13:43:51;;;;;;;;;;;;;;;24.54;27.67;98951.20;435412;1253;108085;-43
2023/06/05 14:04:02;;;;;;;;;;;;;;;24.69;27.73;98941.11;435564;1253;110967;-45
2023/06/05 14:14:08;;;;;;;;;;;;;;;24.42;27.30;98927.81;435257;1250;106654;-42
2023/06/05 14:24:15;;;;;;;;;;;;;;;24.48;27.37;98919.58;435339;1253;98794;-44
2023/06/05 15:28:44;;;;;;;4.60;2.90;;;;;;;24.18;27.68;98894.86;424284;1292;635984;-41
2023/06/05 15:48:59;;;;;;;5.20;2.50;;;;;;;24.09;27.13;98884.32;433875;1263;106893;-43
2023/06/05 15:59:07;;;;;;;5.00;2.30;;;;;;;24.17;27.41;98881.34;434019;1262;107026;-43
2023/06/05 16:09:14;;;;;;;2.80;2.20;;;;;;;24.18;27.46;98875.59;433976;1263;107548;-44
2023/06/05 16:19:22;;;;;;;2.80;1.90;;;;;;;24.11;27.69;98872.15;433945;1263;95694;-44
2023/06/05 16:29:31;;;;;;;4.00;2.50;;;;;;;24.06;27.85;98869.95;433880;1262;95472;-45
2023/06/05 16:39:39;;;;;;;6.80;2.30;;;;;;;23.82;27.86;98872.57;434385;1259;107657;-44
2023/06/05 16:49:47;;;;;;;3.50;2.10;;;;;;;23.45;27.89;98873.33;434345;1256;107196;-45
2023/06/05 16:59:54;;;;;;;3.00;2.70;;;;;;;23.26;28.39;98872.89;435341;1257;107700;-44
2023/06/05 17:10:02;;;;;;;7.00;2.20;;;;;;;23.11;28.94;98874.10;435305;1256;95381;-44
2023/06/05 17:20:10;;;;;;;6.10;2.50;;;;;;;22.92;29.35;98872.65;435262;1255;95666;-43
2023/06/05 17:30:15;;;;;;;4.30;2.00;;;;;;;22.70;29.76;98866.60;435401;1257;109677;-45
2023/06/05 17:40:24;;;;;;;4.80;2.50;;;;;;;22.49;30.10;98864.52;435277;1256;96123;-45
2023/06/05 17:50:31;;;;;;;5.90;2.70;;;;;;;22.15;30.40;98864.56;435421;1255;96093;-44
2023/06/05 18:00:40;;;;;;;5.10;2.60;;;;;;;21.91;30.73;98864.78;435219;1254;95473;-48
2023/06/05 18:10:45;;;;;;;4.70;2.90;;;;;;;21.48;31.54;98866.23;435585;1255;108669;-45
2023/06/05 18:20:53;;;;;;;5.60;3.10;;;;;;;20.91;32.19;98869.64;435423;1256;95273;-45
2023/06/05 18:31:00;;;;;;;6.90;3.10;;;;;;;20.38;32.99;98877.11;435283;1254;96549;-43
2023/06/05 18:41:07;;;;;;;8.10;3.60;;;;;;;19.75;34.22;98878.68;435282;1255;95884;-43
2023/06/05 18:51:14;;;;;;;10.30;3.80;;;;;;;19.18;35.75;98877.72;435290;1257;110258;-45
2023/06/05 19:01:21;;;;;;;10.50;3.90;;;;;;;18.69;37.10;98888.40;435401;1257;107643;-44
2023/06/05 19:11:29;;;;;;;15.80;5.10;;;;;;;18.23;38.16;98895.92;435377;1256;96236;-44
2023/06/05 19:21:37;;;;;;;15.60;5.40;;;;;;;17.83;39.32;98903.19;435344;1256;95290;-44
2023/06/05 19:31:45;;;;;;;13.40;5.80;;;;;;;17.47;40.41;98908.38;435408;1256;110257;-44
2023/06/05 19:41:52;;;;;;;9.10;5.40;;;;;;;17.17;41.33;98910.92;435331;1254;108285;-44
2023/06/05 19:52:01;;;;;;;18.40;6.00;;;;;;;16.87;42.16;98905.84;435454;1256;95684;-44
2023/06/05 20:02:05;;;;;;;8.70;5.60;;;;;;;16.62;43.13;98906.44;435304;1256;95313;-44
2023/06/05 20:12:14;;;;;;;16.50;6.10;;;;;;;16.34;43.81;98912.89;435203;1257;110778;-43
2023/06/05 20:22:22;;;;;;;9.30;5.80;;;;;;;16.24;44.38;98908.45;435288;1254;107874;-44
2023/06/05 20:32:29;;;;;;;7.50;4.90;;;;;;;16.21;44.90;98915.02;435379;1256;95668;-44
2023/06/05 20:42:37;;;;;;;8.40;4.60;;;;;;;16.60;44.46;98918.13;435427;1254;95705;-43
2023/06/05 20:52:44;;;;;;;6.80;4.70;;;;;;;17.05;43.84;98914.10;435297;1256;108315;-45
2023/06/05 21:02:52;;;;;;;8.80;4.60;;;;;;;17.44;43.10;98916.39;435423;1253;108650;-43
2023/06/05 21:13:00;;;;;;;11.80;4.50;;;;;;;17.60;42.52;98918.42;435454;1256;95242;-41
2023/06/05 21:23:06;;;;;;;7.80;4.10;;;;;;;17.73;42.17;98919.14;435326;1257;95273;-43
2023/06/05 21:33:14;;;;;;;8.70;4.60;;;;;;;17.78;42.00;98927.86;435434;1256;108750;-42
2023/06/05 21:43:20;;;;;;;9.40;4.70;;;;;;;17.78;41.87;98928.61;435352;1254;107958;-43
2023/06/05 21:53:27;;;;;;;10.60;5.40;;;;;;;17.72;41.99;98926.95;435450;1256;95272;-43
2023/06/05 22:03:35;;;;;;;9.20;4.40;;;;;;;17.65;41.90;98925.66;435288;1256;96878;-44
2023/06/05 22:13:44;;;;;;;7.70;4.00;;;;;;;17.45;42.11;98930.14;435357;1256;108838;-44
2023/06/05 22:23:52;;;;;;;7.40;4.60;;;;;;;17.29;42.53;98929.21;435346;1256;107307;-42
2023/06/05 22:34:00;;;;;;;11.10;5.50;;;;;;;17.23;42.78;98928.18;435413;1257;106716;-44
2023/06/05 22:44:06;;;;;;;11.10;5.30;;;;;;;17.11;42.86;98924.92;435369;1256;96018;-43
2023/06/05 22:54:13;;;;;;;7.80;4.50;;;;;;;17.06;43.22;98915.52;435345;1251;109361;-44
2023/06/05 23:14:29;;;;;;;8.90;4.00;;;;;;;17.16;43.42;98908.95;435444;1256;95602;-44
2023/06/05 23:24:36;;;;;;;6.90;3.30;;;;;;;17.23;43.27;98906.38;435437;1256;107583;-44
2023/06/05 23:34:43;;;;;;;5.10;3.60;;;;;;;17.31;43.13;98908.96;435273;1255;109264;-42
2023/06/05 23:44:49;;;;;;;6.20;2.40;;;;;;;17.28;43.10;98903.63;435362;1261;95494;-44
